createdAt,value
2018-07-01T00:00:15.246Z,3.65
2018-07-01T00:00:48.229Z,4.00
2018-07-01T00:01:21.261Z,3.85
2018-07-01T00:01:54.273Z,6.25
2018-07-01T00:02:27.344Z,3.40
2018-07-01T00:03:00.337Z,3.65
2018-07-01T00:03:33.379Z,2.90
2018-07-01T00:04:06.440Z,6.03
2018-07-01T00:04:39.448Z,2.95
2018-07-01T00:05:12.553Z,5.55
2018-07-01T00:05:45.565Z,2.50
2018-07-01T00:06:18.590Z,4.70
2018-07-01T00:06:51.638Z,2.45
2018-07-01T00:07:24.714Z,3.45
2018-07-01T00:07:57.790Z,3.35
2018-07-01T00:08:30.813Z,5.58
2018-07-01T00:09:06.080Z,5.03
2018-07-01T00:09:39.111Z,3.77
2018-07-01T00:10:12.168Z,7.12
2018-07-01T00:10:45.213Z,4.12
2018-07-01T00:11:18.241Z,4.35
2018-07-01T00:11:51.253Z,4.78
2018-07-01T00:12:24.269Z,4.20
2018-07-01T00:12:57.310Z,4.30
2018-07-01T00:13:30.346Z,3.65
2018-07-01T00:14:03.472Z,4.20
2018-07-01T00:14:36.539Z,4.30
2018-07-01T00:15:09.645Z,2.37
2018-07-01T00:15:42.687Z,4.03
2018-07-01T00:16:15.725Z,3.70
2018-07-01T00:16:48.721Z,4.45
2018-07-01T00:17:21.815Z,4.08
2018-07-01T00:17:55.474Z,4.17
2018-07-01T00:18:28.515Z,3.58
2018-07-01T00:19:01.527Z,3.10
2018-07-01T00:19:34.593Z,4.53
2018-07-01T00:20:08.646Z,4.90
2018-07-01T00:20:41.663Z,4.17
2018-07-01T00:21:14.739Z,4.72
2018-07-01T00:21:47.747Z,4.67
2018-07-01T00:22:20.809Z,17.02
2018-07-01T00:22:54.196Z,23.02
2018-07-01T00:23:27.231Z,24.40
2018-07-01T00:24:00.232Z,12.05
2018-07-01T00:24:33.303Z,6.15
2018-07-01T00:25:06.874Z,5.03
2018-07-01T00:25:39.921Z,9.13
2018-07-01T00:26:12.926Z,26.62
2018-07-01T00:26:45.991Z,14.78
2018-07-01T00:27:19.095Z,10.78
2018-07-01T00:27:52.118Z,4.80
2018-07-01T00:28:25.194Z,4.55
2018-07-01T00:28:58.215Z,4.30
2018-07-01T00:29:31.280Z,3.37
2018-07-01T00:30:05.853Z,5.75
2018-07-01T00:30:38.877Z,3.67
2018-07-01T00:31:11.951Z,3.37
2018-07-01T00:31:44.975Z,3.10
2018-07-01T00:32:18.014Z,6.60
2018-07-01T00:32:51.032Z,3.80
2018-07-01T00:33:24.112Z,2.87
2018-07-01T00:33:57.107Z,2.40
2018-07-01T00:34:30.146Z,4.05
2018-07-01T00:35:03.263Z,4.05
2018-07-01T00:35:36.600Z,3.67
2018-07-01T00:36:09.641Z,3.33
2018-07-01T00:36:42.712Z,3.07
2018-07-01T00:37:15.779Z,2.87
2018-07-01T00:37:48.819Z,3.20
2018-07-01T00:38:22.127Z,5.25
2018-07-01T00:38:55.122Z,6.25
2018-07-01T00:39:28.126Z,4.08
2018-07-01T00:40:01.130Z,4.25
2018-07-01T00:40:34.152Z,4.42
2018-07-01T00:41:07.753Z,3.42
2018-07-01T00:41:40.925Z,3.95
2018-07-01T00:42:13.965Z,3.35
2018-07-01T00:42:46.996Z,3.90
2018-07-01T00:43:20.004Z,4.65
2018-07-01T00:43:53.008Z,3.47
2018-07-01T00:44:26.012Z,2.77
2018-07-01T00:44:59.039Z,4.12
2018-07-01T00:45:32.026Z,3.70
2018-07-01T00:46:05.073Z,3.60
2018-07-01T00:46:38.163Z,3.58
2018-07-01T00:47:11.212Z,3.72
2018-07-01T00:47:44.188Z,2.25
2018-07-01T00:48:17.233Z,12.07
2018-07-01T00:48:50.229Z,5.97
2018-07-01T00:49:23.277Z,2.85
2018-07-01T00:49:56.333Z,3.17
2018-07-01T00:50:29.351Z,2.80
2018-07-01T00:51:02.376Z,2.62
2018-07-01T00:51:35.821Z,2.70
2018-07-01T00:52:08.867Z,3.58
2018-07-01T00:52:41.915Z,7.42
2018-07-01T00:53:14.939Z,2.50
2018-07-01T00:53:47.951Z,2.90
2018-07-01T00:54:20.975Z,4.28
2018-07-01T00:54:53.991Z,3.12
2018-07-01T00:55:26.955Z,3.90
2018-07-01T00:55:59.988Z,3.00
2018-07-01T00:56:33.425Z,4.20
2018-07-01T00:57:07.105Z,4.72
2018-07-01T00:57:40.112Z,3.35
2018-07-01T00:58:13.147Z,5.40
2018-07-01T00:58:46.199Z,2.95
2018-07-01T00:59:19.183Z,2.58
2018-07-01T00:59:52.191Z,3.67
2018-07-01T01:00:32.017Z,3.22
2018-07-01T01:01:05.052Z,6.58
2018-07-01T01:01:38.105Z,3.52
2018-07-01T01:02:11.181Z,2.22
2018-07-01T01:02:44.213Z,4.00
2018-07-01T01:03:17.231Z,2.00
2018-07-01T01:03:50.263Z,2.52
2018-07-01T01:04:23.279Z,4.08
2018-07-01T01:04:56.305Z,7.00
2018-07-01T01:05:29.330Z,2.20
2018-07-01T01:06:02.364Z,4.37
2018-07-01T01:06:35.426Z,2.55
2018-07-01T01:07:08.489Z,2.40
2018-07-01T01:07:41.500Z,4.33
2018-07-01T01:08:14.529Z,2.25
2018-07-01T01:08:47.539Z,4.28
2018-07-01T01:09:20.534Z,2.10
2018-07-01T01:09:53.613Z,5.50
2018-07-01T01:10:27.261Z,3.25
2018-07-01T01:11:00.317Z,2.20
2018-07-01T01:11:33.327Z,2.55
2018-07-01T01:12:06.369Z,3.55
2018-07-01T01:12:40.038Z,4.15
2018-07-01T01:13:13.052Z,4.30
2018-07-01T01:13:46.050Z,2.80
2018-07-01T01:14:19.147Z,6.75
2018-07-01T01:14:52.193Z,2.20
2018-07-01T01:15:25.251Z,2.58
2018-07-01T01:15:58.298Z,2.58
2018-07-01T01:16:31.377Z,2.27
2018-07-01T01:17:04.431Z,3.60
2018-07-01T01:17:37.502Z,3.80
2018-07-01T01:18:10.569Z,2.58
2018-07-01T01:18:43.573Z,3.27
2018-07-01T01:19:16.565Z,3.70
2018-07-01T01:19:49.570Z,4.10
2018-07-01T01:20:22.625Z,3.60
2018-07-01T01:20:55.659Z,2.52
2018-07-01T01:21:28.658Z,4.03
2018-07-01T01:22:01.728Z,2.60
2018-07-01T01:22:34.714Z,2.08
2018-07-01T01:23:07.733Z,3.33
2018-07-01T01:23:40.747Z,3.52
2018-07-01T01:24:13.781Z,2.87
2018-07-01T01:24:46.797Z,2.17
2018-07-01T01:25:19.826Z,3.45
2018-07-01T01:25:52.987Z,2.08
2018-07-01T01:26:26.039Z,2.37
2018-07-01T01:26:59.051Z,3.33
2018-07-01T01:27:32.064Z,3.35
2018-07-01T01:28:05.215Z,2.77
2018-07-01T01:28:38.222Z,2.12
2018-07-01T01:29:11.229Z,2.17
2018-07-01T01:29:44.234Z,2.87
2018-07-01T01:30:17.259Z,2.75
2018-07-01T01:30:50.438Z,2.45
2018-07-01T01:31:23.541Z,5.42
2018-07-01T01:31:56.899Z,4.45
2018-07-01T01:32:30.016Z,6.07
2018-07-01T01:33:03.099Z,3.67
2018-07-01T01:33:36.155Z,3.98
2018-07-01T01:34:09.280Z,4.12
2018-07-01T01:34:42.379Z,5.30
2018-07-01T01:35:15.417Z,2.55
2018-07-01T01:35:48.493Z,3.67
2018-07-01T01:36:21.827Z,2.42
2018-07-01T01:36:54.951Z,2.50
2018-07-01T01:37:28.031Z,2.65
2018-07-01T01:38:01.111Z,4.75
2018-07-01T01:38:36.597Z,2.62
2018-07-01T01:39:14.029Z,3.35
2018-07-01T01:39:47.078Z,4.40
2018-07-01T01:40:24.376Z,2.50
2018-07-01T01:41:02.891Z,6.03
2018-07-01T01:43:44.587Z,2.10
2018-07-01T01:44:28.319Z,2.33
2018-07-01T01:45:07.593Z,3.05
2018-07-01T01:45:48.327Z,3.00
2018-07-01T01:46:26.439Z,3.70
2018-07-01T01:47:05.019Z,5.53
2018-07-01T01:47:42.103Z,2.50
2018-07-01T01:48:21.964Z,4.05
2018-07-01T01:49:00.623Z,4.25
2018-07-01T01:49:38.333Z,4.22
2018-07-01T01:50:19.039Z,4.22
2018-07-01T01:50:56.807Z,3.45
2018-07-01T01:51:34.633Z,3.98
2018-07-01T01:52:13.237Z,3.67
2018-07-01T01:53:08.511Z,3.83
2018-07-01T01:53:51.872Z,4.65
2018-07-01T01:54:30.445Z,3.60
2018-07-01T01:55:11.641Z,5.65
2018-07-01T01:55:49.037Z,4.45
2018-07-01T01:56:27.537Z,3.47
2018-07-01T01:57:09.934Z,6.95
2018-07-01T01:57:56.783Z,4.80
2018-07-01T01:58:33.800Z,6.97
2018-07-01T01:59:45.036Z,3.92
2018-07-01T02:00:27.825Z,5.43
2018-07-01T02:01:09.592Z,4.50
2018-07-01T02:01:47.005Z,4.75
2018-07-01T02:02:23.976Z,4.33
2018-07-01T02:03:02.200Z,4.85
2018-07-01T02:03:40.771Z,5.45
2018-07-01T02:04:21.525Z,6.15
2018-07-01T02:04:59.811Z,5.25
2018-07-01T02:05:43.307Z,5.42
2018-07-01T02:06:20.212Z,7.47
2018-07-01T02:06:55.252Z,7.78
2018-07-01T02:07:38.052Z,10.40
2018-07-01T02:08:16.027Z,7.17
2018-07-01T02:08:53.219Z,5.72
2018-07-01T02:09:29.961Z,7.40
2018-07-01T02:10:03.107Z,5.42
2018-07-01T02:10:36.175Z,7.33
2018-07-01T02:11:09.257Z,5.92
2018-07-01T02:11:45.503Z,7.08
2018-07-01T02:12:18.810Z,6.42
2018-07-01T02:12:52.123Z,4.45
2018-07-01T02:13:25.591Z,8.65
2018-07-01T02:14:05.953Z,5.45
2018-07-01T02:14:41.760Z,5.10
2018-07-01T02:15:25.258Z,7.20
2018-07-01T02:16:01.991Z,5.95
2018-07-01T02:16:40.955Z,5.62
2018-07-01T02:17:18.445Z,8.38
2018-07-01T02:17:52.537Z,10.13
2018-07-01T02:18:25.590Z,8.88
2018-07-01T02:18:58.644Z,7.70
2018-07-01T02:19:31.706Z,6.75
2018-07-01T02:20:05.135Z,6.17
2018-07-01T02:20:39.477Z,5.67
2018-07-01T02:21:12.541Z,5.95
2018-07-01T02:21:45.627Z,6.58
2018-07-01T02:22:23.279Z,6.55
2018-07-01T02:23:16.746Z,5.83
2018-07-01T02:23:52.281Z,7.72
2018-07-01T02:24:28.431Z,7.12
2018-07-01T02:25:03.394Z,6.90
2018-07-01T02:25:37.589Z,5.78
2018-07-01T02:26:10.627Z,4.78
2018-07-01T02:26:43.741Z,6.67
2018-07-01T02:27:16.762Z,6.17
2018-07-01T02:27:49.787Z,6.17
2018-07-01T02:28:22.810Z,7.85
2018-07-01T02:28:55.888Z,4.92
2018-07-01T02:29:28.933Z,11.40
2018-07-01T02:30:01.991Z,6.47
2018-07-01T02:30:34.997Z,5.87
2018-07-01T02:31:08.097Z,5.87
2018-07-01T02:31:41.107Z,6.47
2018-07-01T02:32:14.143Z,8.15
2018-07-01T02:32:47.175Z,7.28
2018-07-01T02:33:20.163Z,6.28
2018-07-01T02:33:53.286Z,6.95
2018-07-01T02:34:26.304Z,6.72
2018-07-01T02:34:59.301Z,6.92
2018-07-01T02:35:32.611Z,6.62
2018-07-01T02:36:05.399Z,10.50
2018-07-01T02:36:38.409Z,7.55
2018-07-01T02:37:11.499Z,7.10
2018-07-01T02:37:44.523Z,6.92
2018-07-01T02:38:17.544Z,5.25
2018-07-01T02:38:50.620Z,6.50
2018-07-01T02:39:23.636Z,5.67
2018-07-01T02:39:56.707Z,6.22
2018-07-01T02:40:30.289Z,5.92
2018-07-01T02:41:03.350Z,6.47
2018-07-01T02:41:36.806Z,8.53
2018-07-01T02:42:09.871Z,5.95
2018-07-01T02:42:42.969Z,6.53
2018-07-01T02:43:15.975Z,7.70
2018-07-01T02:43:48.990Z,7.03
2018-07-01T02:44:21.991Z,7.33
2018-07-01T02:44:55.035Z,6.50
2018-07-01T02:45:28.033Z,6.30
2018-07-01T02:46:01.767Z,7.05
2018-07-01T02:46:34.757Z,6.95
2018-07-01T02:47:07.860Z,8.13
2018-07-01T02:47:40.908Z,8.80
2018-07-01T02:48:13.926Z,8.38
2018-07-01T02:48:46.935Z,5.53
2018-07-01T02:49:19.891Z,7.40
2018-07-01T02:49:52.939Z,6.85
2018-07-01T02:50:25.966Z,5.60
2018-07-01T02:50:58.998Z,7.35
2018-07-01T02:51:32.039Z,6.35
2018-07-01T02:52:05.129Z,8.13
2018-07-01T02:52:38.145Z,6.45
2018-07-01T02:53:11.145Z,7.35
2018-07-01T02:53:44.243Z,6.80
2018-07-01T02:54:17.227Z,7.05
2018-07-01T02:54:50.409Z,6.30
2018-07-01T02:55:23.413Z,7.28
2018-07-01T02:55:56.415Z,9.33
2018-07-01T02:56:29.491Z,8.20
2018-07-01T02:57:02.527Z,7.08
2018-07-01T02:57:35.528Z,6.12
2018-07-01T02:58:08.539Z,9.75
2018-07-01T02:58:42.227Z,6.78
2018-07-01T02:59:15.259Z,7.17
2018-07-01T02:59:48.271Z,8.63
2018-07-01T03:00:21.260Z,8.28
2018-07-01T03:00:54.235Z,6.10
2018-07-01T03:01:27.230Z,8.08
2018-07-01T03:02:00.225Z,9.08
2018-07-01T03:02:33.263Z,6.97
2018-07-01T03:03:06.329Z,8.60
2018-07-01T03:03:39.348Z,15.03
2018-07-01T03:04:12.315Z,9.10
2018-07-01T03:04:45.357Z,8.38
2018-07-01T03:05:18.360Z,7.22
2018-07-01T03:05:51.371Z,7.50
2018-07-01T03:06:24.440Z,8.33
2018-07-01T03:06:57.481Z,8.33
2018-07-01T03:07:30.477Z,10.68
2018-07-01T03:08:03.525Z,5.80
2018-07-01T03:08:36.503Z,7.30
2018-07-01T03:09:11.793Z,8.85
2018-07-01T03:09:44.815Z,6.92
2018-07-01T03:10:17.795Z,5.55
2018-07-01T03:10:50.873Z,8.65
2018-07-01T03:11:23.886Z,5.62
2018-07-01T03:11:56.980Z,6.67
2018-07-01T03:12:29.984Z,10.20
2018-07-01T03:13:02.983Z,5.80
2018-07-01T03:13:36.055Z,5.62
2018-07-01T03:14:10.051Z,6.50
2018-07-01T03:14:43.064Z,6.67
2018-07-01T03:15:16.065Z,7.08
2018-07-01T03:15:49.081Z,6.42
2018-07-01T03:16:25.784Z,5.40
2018-07-01T03:16:58.840Z,6.80
2018-07-01T03:17:31.957Z,6.75
2018-07-01T03:18:04.964Z,6.37
2018-07-01T03:18:37.970Z,7.17
2018-07-01T03:19:11.005Z,6.28
2018-07-01T03:19:44.026Z,6.42
2018-07-01T03:20:17.089Z,6.00
2018-07-01T03:20:50.101Z,5.50
2018-07-01T03:21:23.114Z,8.48
2018-07-01T03:21:56.291Z,5.83
2018-07-01T03:22:29.336Z,6.72
2018-07-01T03:23:02.345Z,6.42
2018-07-01T03:23:35.335Z,6.53
2018-07-01T03:24:08.335Z,5.85
2018-07-01T03:24:41.333Z,5.53
2018-07-01T03:25:14.366Z,5.00
2018-07-01T03:25:47.364Z,8.28
2018-07-01T03:26:20.446Z,6.75
2018-07-01T03:26:53.510Z,4.90
2018-07-01T03:27:26.508Z,5.47
2018-07-01T03:27:59.623Z,6.28
2018-07-01T03:28:32.638Z,7.50
2018-07-01T03:29:05.868Z,4.15
2018-07-01T03:29:38.856Z,5.33
2018-07-01T03:30:11.855Z,4.60
2018-07-01T03:30:44.878Z,4.85
2018-07-01T03:31:17.918Z,5.47
2018-07-01T03:31:50.903Z,5.40
2018-07-01T03:32:23.930Z,7.95
2018-07-01T03:32:56.940Z,7.60
2018-07-01T03:33:29.954Z,7.67
2018-07-01T03:34:02.978Z,5.37
2018-07-01T03:34:35.988Z,6.55
2018-07-01T03:35:09.044Z,6.90
2018-07-01T03:35:42.071Z,5.72
2018-07-01T03:36:15.096Z,4.95
2018-07-01T03:36:48.123Z,5.35
2018-07-01T03:37:21.118Z,6.45
2018-07-01T03:37:54.140Z,4.55
2018-07-01T03:38:27.132Z,5.72
2018-07-01T03:39:00.164Z,5.70
2018-07-01T03:39:33.200Z,7.65
2018-07-01T03:40:06.460Z,5.05
2018-07-01T03:40:39.449Z,7.22
2018-07-01T03:41:13.123Z,5.25
2018-07-01T03:41:46.152Z,8.53
2018-07-01T03:42:19.172Z,7.22
2018-07-01T03:42:52.204Z,4.37
2018-07-01T03:43:25.226Z,4.78
2018-07-01T03:43:58.212Z,6.17
2018-07-01T03:44:31.216Z,6.05
2018-07-01T03:45:04.297Z,4.90
2018-07-01T03:45:37.430Z,5.00
2018-07-01T03:46:10.550Z,4.92
2018-07-01T03:46:43.554Z,6.60
2018-07-01T03:47:16.562Z,4.35
2018-07-01T03:47:49.616Z,6.20
2018-07-01T03:48:22.614Z,7.08
2018-07-01T03:48:55.620Z,4.87
2018-07-01T03:49:28.614Z,5.03
2018-07-01T03:50:01.630Z,4.40
2018-07-01T03:50:34.678Z,4.28
2018-07-01T03:51:07.713Z,8.33
2018-07-01T03:51:40.775Z,6.37
2018-07-01T03:52:13.839Z,6.15
2018-07-01T03:52:46.848Z,5.20
2018-07-01T03:53:19.890Z,7.10
2018-07-01T03:53:52.882Z,4.42
2018-07-01T03:54:25.890Z,6.85
2018-07-01T03:54:58.908Z,5.75
2018-07-01T03:55:31.912Z,8.48
2018-07-01T03:56:05.000Z,5.10
2018-07-01T03:56:38.005Z,5.80
2018-07-01T03:57:10.979Z,6.17
2018-07-01T03:57:44.054Z,5.28
2018-07-01T03:58:17.104Z,8.35
2018-07-01T03:58:50.155Z,5.20
2018-07-01T03:59:23.154Z,5.03
2018-07-01T03:59:56.164Z,6.42
2018-07-01T04:00:29.262Z,6.08
2018-07-01T04:01:02.245Z,5.78
2018-07-01T04:01:35.242Z,5.67
2018-07-01T04:02:13.259Z,8.15
2018-07-01T04:02:46.290Z,7.62
2018-07-01T04:03:19.386Z,4.85
2018-07-01T04:03:52.370Z,5.00
2018-07-01T04:04:25.475Z,6.28
2018-07-01T04:04:58.477Z,5.22
2018-07-01T04:05:31.497Z,4.08
2018-07-01T04:06:05.009Z,4.83
2018-07-01T04:06:38.009Z,6.20
2018-07-01T04:07:11.103Z,7.25
2018-07-01T04:07:44.103Z,3.17
2018-07-01T04:08:17.193Z,4.87
2018-07-01T04:08:50.224Z,5.47
2018-07-01T04:09:23.218Z,4.17
2018-07-01T04:09:56.224Z,5.50
2018-07-01T04:10:29.216Z,4.83
2018-07-01T04:11:02.263Z,5.15
2018-07-01T04:11:35.422Z,7.55
2018-07-01T04:12:08.466Z,4.97
2018-07-01T04:12:41.444Z,5.72
2018-07-01T04:13:14.527Z,6.15
2018-07-01T04:13:47.554Z,7.03
2018-07-01T04:14:20.564Z,4.95
2018-07-01T04:14:53.590Z,4.67
2018-07-01T04:15:26.643Z,6.42
2018-07-01T04:15:59.692Z,4.67
2018-07-01T04:16:32.692Z,4.92
2018-07-01T04:17:05.748Z,5.78
2018-07-01T04:17:38.754Z,5.45
2018-07-01T04:18:11.764Z,4.95
2018-07-01T04:18:44.796Z,6.08
2018-07-01T04:19:22.366Z,4.90
2018-07-01T04:19:55.643Z,4.70
2018-07-01T04:20:28.663Z,4.85
2018-07-01T04:21:01.737Z,7.22
2018-07-01T04:21:34.771Z,5.45
2018-07-01T04:22:08.930Z,5.22
2018-07-01T04:22:41.967Z,4.92
2018-07-01T04:23:14.948Z,7.20
2018-07-01T04:23:47.952Z,5.87
2018-07-01T04:24:20.938Z,4.67
2018-07-01T04:24:53.939Z,3.85
2018-07-01T04:25:26.968Z,4.47
2018-07-01T04:25:59.979Z,4.28
2018-07-01T04:26:33.007Z,5.50
2018-07-01T04:27:07.044Z,5.33
2018-07-01T04:27:40.050Z,5.12
2018-07-01T04:28:13.049Z,5.95
2018-07-01T04:28:46.047Z,5.10
2018-07-01T04:29:19.068Z,5.20
2018-07-01T04:29:52.116Z,5.03
2018-07-01T04:30:25.138Z,5.05
2018-07-01T04:30:58.175Z,7.35
2018-07-01T04:31:31.165Z,5.67
2018-07-01T04:33:33.801Z,5.40
2018-07-01T04:34:06.810Z,8.45
2018-07-01T04:34:39.879Z,5.50
2018-07-01T04:35:12.891Z,4.12
2018-07-01T04:35:45.942Z,4.65
2018-07-01T04:36:18.938Z,4.62
2018-07-01T04:36:52.013Z,5.35
2018-07-01T04:37:24.998Z,5.80
2018-07-01T04:37:57.980Z,4.75
2018-07-01T04:38:31.010Z,5.12
2018-07-01T04:39:06.411Z,5.35
2018-07-01T04:39:39.425Z,5.08
2018-07-01T04:40:12.435Z,3.60
2018-07-01T04:40:45.458Z,4.80
2018-07-01T04:41:18.966Z,4.87
2018-07-01T04:41:52.000Z,4.67
2018-07-01T04:42:24.991Z,4.25
2018-07-01T04:42:58.005Z,5.78
2018-07-01T04:43:31.031Z,5.12
2018-07-01T04:44:04.111Z,7.95
2018-07-01T04:44:37.124Z,7.20
2018-07-01T04:45:10.178Z,6.70
2018-07-01T04:45:43.295Z,6.00
2018-07-01T04:46:16.315Z,5.35
2018-07-01T04:46:49.382Z,4.33
2018-07-01T04:47:23.422Z,4.75
2018-07-01T04:47:56.407Z,5.58
2018-07-01T04:48:29.390Z,5.33
2018-07-01T04:49:02.480Z,4.37
2018-07-01T04:49:35.600Z,5.60
2018-07-01T04:50:08.615Z,4.87
2018-07-01T04:50:41.589Z,5.62
2018-07-01T04:51:14.592Z,7.22
2018-07-01T04:51:47.647Z,4.22
2018-07-01T04:52:20.642Z,4.55
2018-07-01T04:52:53.911Z,5.08
2018-07-01T04:53:26.908Z,4.30
2018-07-01T04:53:59.980Z,5.12
2018-07-01T04:54:33.006Z,7.85
2018-07-01T04:55:06.076Z,5.33
2018-07-01T04:55:39.088Z,6.20
2018-07-01T04:56:12.108Z,4.92
2018-07-01T04:56:45.240Z,4.78
2018-07-01T04:57:18.255Z,4.78
2018-07-01T04:57:51.286Z,9.05
2018-07-01T04:58:24.322Z,5.37
2018-07-01T04:58:57.314Z,6.85
2018-07-01T04:59:30.300Z,9.73
2018-07-01T05:00:03.409Z,5.17
2018-07-01T05:00:36.420Z,5.20
2018-07-01T05:01:09.446Z,7.33
2018-07-01T05:01:42.482Z,4.67
2018-07-01T05:02:15.544Z,5.45
2018-07-01T05:02:48.594Z,5.55
2018-07-01T05:03:21.617Z,4.78
2018-07-01T05:03:54.600Z,8.60
2018-07-01T05:04:27.580Z,5.22
2018-07-01T05:05:00.614Z,6.17
2018-07-01T05:05:33.641Z,5.72
2018-07-01T05:06:06.702Z,5.50
2018-07-01T05:06:39.729Z,4.90
2018-07-01T05:07:12.698Z,5.50
2018-07-01T05:07:45.776Z,5.95
2018-07-01T05:08:18.812Z,5.33
2018-07-01T05:08:51.853Z,5.70
2018-07-01T05:09:24.867Z,7.67
2018-07-01T05:09:57.894Z,6.87
2018-07-01T05:10:30.918Z,5.85
2018-07-01T05:11:03.934Z,6.55
2018-07-01T05:11:37.022Z,5.80
2018-07-01T05:12:10.076Z,6.25
2018-07-01T05:12:43.088Z,5.22
2018-07-01T05:13:16.088Z,6.33
2018-07-01T05:13:49.146Z,6.53
2018-07-01T05:14:22.130Z,5.03
2018-07-01T05:14:55.161Z,6.25
2018-07-01T05:15:28.208Z,4.45
2018-07-01T05:16:01.264Z,4.92
2018-07-01T05:16:34.401Z,6.35
2018-07-01T05:17:07.428Z,4.28
2018-07-01T05:17:40.440Z,8.15
2018-07-01T05:18:13.458Z,5.60
2018-07-01T05:18:46.482Z,6.33
2018-07-01T05:19:19.496Z,5.55
2018-07-01T05:19:52.518Z,6.22
2018-07-01T05:20:25.511Z,8.23
2018-07-01T05:20:58.594Z,5.50
2018-07-01T05:21:31.658Z,5.53
2018-07-01T05:22:04.684Z,9.10
2018-07-01T05:22:37.710Z,5.67
2018-07-01T05:24:40.263Z,5.58
2018-07-01T05:25:13.306Z,6.95
2018-07-01T05:25:46.304Z,5.60
2018-07-01T05:26:19.328Z,5.67
2018-07-01T05:26:52.334Z,5.80
2018-07-01T05:27:25.388Z,6.47
2018-07-01T05:27:58.401Z,7.22
2018-07-01T05:28:31.376Z,7.15
2018-07-01T05:29:04.456Z,6.87
2018-07-01T05:29:37.475Z,5.80
2018-07-01T05:30:10.505Z,10.40
2018-07-01T05:30:43.508Z,5.67
2018-07-01T05:31:16.546Z,6.70
2018-07-01T05:31:49.556Z,5.00
2018-07-01T05:32:22.571Z,5.72
2018-07-01T05:32:55.566Z,5.10
2018-07-01T05:33:28.567Z,5.12
2018-07-01T05:34:01.555Z,6.37
2018-07-01T05:34:34.734Z,6.97
2018-07-01T05:35:07.778Z,6.17
2018-07-01T05:35:40.775Z,5.65
2018-07-01T05:36:13.782Z,5.90
2018-07-01T05:36:46.782Z,7.03
2018-07-01T05:37:19.785Z,6.47
2018-07-01T05:37:52.782Z,5.70
2018-07-01T05:38:25.774Z,5.35
2018-07-01T05:38:58.790Z,7.50
2018-07-01T05:39:31.818Z,11.28
2018-07-01T05:40:04.873Z,6.47
2018-07-01T05:40:37.898Z,8.60
2018-07-01T05:41:10.898Z,5.60
2018-07-01T05:41:43.902Z,4.47
2018-07-01T05:42:16.906Z,6.20
2018-07-01T05:42:49.870Z,6.10
2018-07-01T05:43:22.854Z,8.05
2018-07-01T05:43:55.890Z,4.87
2018-07-01T05:44:28.956Z,4.97
2018-07-01T05:45:02.001Z,6.33
2018-07-01T05:45:35.015Z,5.62
2018-07-01T05:46:08.046Z,5.95
2018-07-01T05:46:41.088Z,5.97
2018-07-01T05:47:14.140Z,5.47
2018-07-01T05:47:47.148Z,5.53
2018-07-01T05:48:20.166Z,5.92
2018-07-01T05:48:53.224Z,9.55
2018-07-01T05:49:26.479Z,5.45
2018-07-01T05:49:59.794Z,4.42
2018-07-01T05:50:32.816Z,5.67
2018-07-01T05:51:05.917Z,5.45
2018-07-01T05:51:38.962Z,5.00
2018-07-01T05:52:12.009Z,6.45
2018-07-01T05:52:45.027Z,5.75
2018-07-01T05:53:18.048Z,4.67
2018-07-01T05:53:51.061Z,6.70
2018-07-01T05:54:24.121Z,6.25
2018-07-01T05:54:57.154Z,4.92
2018-07-01T05:55:30.148Z,4.28
2018-07-01T05:56:03.200Z,4.50
2018-07-01T05:56:36.272Z,6.30
2018-07-01T05:57:09.389Z,5.00
2018-07-01T05:57:42.402Z,5.22
2018-07-01T05:58:15.438Z,6.37
2018-07-01T05:58:48.458Z,6.25
2018-07-01T05:59:21.884Z,9.90
2018-07-01T05:59:54.927Z,6.62
2018-07-01T06:00:27.994Z,4.97
2018-07-01T06:01:00.979Z,3.37
2018-07-01T06:01:34.044Z,4.83
2018-07-01T06:02:07.118Z,7.33
2018-07-01T06:02:54.782Z,5.00
2018-07-01T06:03:27.816Z,4.58
2018-07-01T06:04:00.834Z,6.58
2018-07-01T06:04:33.873Z,4.28
2018-07-01T06:05:06.915Z,4.58
2018-07-01T06:05:39.994Z,4.92
2018-07-01T06:06:13.034Z,4.65
2018-07-01T06:06:46.078Z,7.25
2018-07-01T06:07:19.078Z,4.40
2018-07-01T06:07:52.174Z,6.22
2018-07-01T06:08:25.224Z,6.33
2018-07-01T06:08:58.246Z,6.28
2018-07-01T06:09:31.235Z,5.87
2018-07-01T06:10:04.521Z,5.08
2018-07-01T06:10:37.568Z,5.20
2018-07-01T06:11:10.610Z,8.98
2018-07-01T06:11:43.668Z,7.58
2018-07-01T06:12:16.696Z,6.33
2018-07-01T06:12:49.740Z,6.72
2018-07-01T06:13:22.768Z,5.53
2018-07-01T06:13:55.792Z,5.83
2018-07-01T06:14:28.828Z,7.25
2018-07-01T06:15:01.874Z,6.00
2018-07-01T06:15:34.938Z,7.23
2018-07-01T06:16:07.961Z,4.55
2018-07-01T06:16:41.077Z,5.08
2018-07-01T06:17:14.031Z,6.10
2018-07-01T06:17:47.074Z,5.05
2018-07-01T06:18:20.137Z,4.72
2018-07-01T06:18:53.236Z,6.40
2018-07-01T06:19:26.254Z,5.50
2018-07-01T06:19:59.278Z,6.00
2018-07-01T06:20:32.276Z,5.08
2018-07-01T06:21:05.338Z,6.33
2018-07-01T06:21:38.327Z,6.58
2018-07-01T06:22:11.356Z,6.75
2018-07-01T06:22:44.392Z,8.45
2018-07-01T06:23:17.398Z,6.05
2018-07-01T06:23:50.398Z,6.58
2018-07-01T06:24:23.452Z,8.83
2018-07-01T06:24:56.494Z,6.17
2018-07-01T06:25:29.482Z,4.35
2018-07-01T06:26:02.489Z,5.87
2018-07-01T06:26:35.532Z,7.62
2018-07-01T06:27:08.540Z,6.35
2018-07-01T06:27:41.590Z,5.80
2018-07-01T06:28:14.578Z,8.13
2018-07-01T06:28:47.556Z,6.55
2018-07-01T06:29:20.603Z,6.40
2018-07-01T06:29:53.600Z,5.10
2018-07-01T06:30:26.618Z,6.20
2018-07-01T06:30:59.699Z,6.87
2018-07-01T06:31:32.722Z,6.97
2018-07-01T06:32:05.820Z,5.60
2018-07-01T06:32:38.934Z,8.48
2018-07-01T06:33:11.962Z,3.67
2018-07-01T06:33:44.976Z,5.05
2018-07-01T06:34:18.059Z,4.62
2018-07-01T06:34:51.087Z,5.72
2018-07-01T06:35:24.092Z,5.72
2018-07-01T06:35:57.116Z,7.62
2018-07-01T06:36:30.260Z,7.35
2018-07-01T06:37:03.308Z,5.28
2018-07-01T06:37:36.334Z,4.50
2018-07-01T06:38:09.378Z,5.53
2018-07-01T06:38:42.736Z,4.53
2018-07-01T06:39:15.738Z,6.62
2018-07-01T06:39:48.798Z,4.87
2018-07-01T06:40:21.849Z,5.12
2018-07-01T06:41:58.303Z,7.67
2018-07-01T06:42:31.333Z,8.43
2018-07-01T06:43:04.414Z,5.03
2018-07-01T06:43:37.430Z,10.55
2018-07-01T06:44:10.506Z,5.60
2018-07-01T06:44:43.492Z,3.83
2018-07-01T06:45:17.912Z,5.78
2018-07-01T06:45:50.896Z,7.55
2018-07-01T06:46:24.510Z,6.05
2018-07-01T06:46:57.551Z,7.60
2018-07-01T06:47:30.562Z,7.12
2018-07-01T06:48:08.626Z,4.65
2018-07-01T06:48:41.667Z,8.00
2018-07-01T06:49:14.653Z,5.45
2018-07-01T06:49:47.662Z,6.55
2018-07-01T06:50:20.690Z,8.48
2018-07-01T06:50:53.642Z,5.78
2018-07-01T06:51:26.646Z,7.62
2018-07-01T06:51:59.655Z,6.28
2018-07-01T06:52:32.647Z,4.55
2018-07-01T06:53:06.064Z,7.65
2018-07-01T06:53:39.080Z,7.25
2018-07-01T06:54:12.132Z,7.30
2018-07-01T06:54:45.164Z,5.95
2018-07-01T06:55:18.155Z,5.10
2018-07-01T06:55:51.132Z,7.87
2018-07-01T06:56:24.247Z,4.58
2018-07-01T06:56:57.284Z,8.13
2018-07-01T06:57:30.296Z,5.03
2018-07-01T06:58:04.175Z,6.40
2018-07-01T06:58:37.318Z,5.70
2018-07-01T06:59:10.334Z,4.87
2018-07-01T06:59:43.361Z,7.55
2018-07-01T07:00:16.417Z,6.37
2018-07-01T07:00:49.485Z,5.78
2018-07-01T07:01:22.509Z,5.85
2018-07-01T07:01:55.564Z,6.78
2018-07-01T07:02:28.583Z,5.17
2018-07-01T07:03:01.624Z,5.42
2018-07-01T07:03:34.692Z,5.45
2018-07-01T07:04:07.726Z,6.12
2018-07-01T07:04:40.742Z,6.67
2018-07-01T07:05:13.755Z,3.67
2018-07-01T07:05:47.142Z,6.28
2018-07-01T07:06:20.180Z,15.30
2018-07-01T07:06:53.258Z,19.48
2018-07-01T07:07:26.254Z,17.77
2018-07-01T07:07:59.237Z,9.50
2018-07-01T07:08:32.232Z,11.80
2018-07-01T07:09:08.898Z,6.90
2018-07-01T07:09:41.886Z,7.47
2018-07-01T07:10:14.864Z,6.28
2018-07-01T07:10:47.944Z,6.75
2018-07-01T07:11:21.008Z,16.85
2018-07-01T07:11:54.014Z,16.17
2018-07-01T07:12:27.042Z,21.97
2018-07-01T07:13:00.037Z,27.10
2018-07-01T07:13:33.090Z,27.30
2018-07-01T07:14:06.226Z,5.67
2018-07-01T07:14:39.515Z,5.25
2018-07-01T07:15:12.611Z,6.05
2018-07-01T07:15:45.650Z,7.05
2018-07-01T07:16:18.665Z,4.60
2018-07-01T07:16:51.690Z,4.90
2018-07-01T07:17:24.702Z,3.98
2018-07-01T07:17:57.754Z,5.60
2018-07-01T07:20:00.332Z,5.58
2018-07-01T07:20:33.922Z,5.08
2018-07-01T07:21:06.949Z,4.58
2018-07-01T07:21:39.992Z,9.80
2018-07-01T07:22:13.052Z,7.60
2018-07-01T07:22:46.080Z,6.00
2018-07-01T07:23:19.106Z,8.13
2018-07-01T07:23:52.098Z,4.67
2018-07-01T07:24:25.171Z,4.45
2018-07-01T07:24:58.196Z,3.62
2018-07-01T07:25:31.226Z,7.60
2018-07-01T07:26:04.288Z,5.45
2018-07-01T07:26:37.292Z,4.70
2018-07-01T07:27:10.470Z,3.60
2018-07-01T07:27:43.534Z,3.75
2018-07-01T07:28:16.546Z,4.87
2018-07-01T07:28:49.565Z,4.50
2018-07-01T07:29:22.578Z,8.50
2018-07-01T07:29:55.553Z,18.20
2018-07-01T07:30:28.592Z,18.80
2018-07-01T07:31:01.658Z,6.20
2018-07-01T07:31:34.677Z,14.90
2018-07-01T07:32:07.904Z,31.57
2018-07-01T07:32:40.910Z,27.32
2018-07-01T07:33:13.888Z,14.60
2018-07-01T07:33:46.970Z,8.80
2018-07-01T07:34:20.030Z,5.03